Time;durP1;ratioP1;P1;durP2;ratioP2;P2;SDS_P1;SDS_P2;PMS_P1;PMS_P2;Temp;Humidity;BMP_temperature;BMP_pressure;BME280_temperature;BME280_humidity;BME280_pressure;Samples;Min_cycle;Max_cycle;Signal;HPM_P1;HPM_P2
2022/10/26 00:00:37;;;;;;;;;;;11.70;99.90;;;;;;5074968;28;19943;-70
2022/10/26 00:03:03;;;;;;;;;;;11.70;99.90;;;;;;5073348;28;20013;-71
2022/10/26 00:05:31;;;;;;;;;;;11.60;99.90;;;;;;5075050;28;19920;-71
2022/10/26 00:07:56;;;;;;;;;;;11.60;99.90;;;;;;5074081;28;20287;-71
2022/10/26 00:10:22;;;;;;;;;;;11.60;99.90;;;;;;5073981;28;19932;-71
2022/10/26 00:12:50;;;;;;;;;;;11.60;99.90;;;;;;5074285;28;20408;-71
2022/10/26 00:15:16;;;;;;;;;;;11.60;99.90;;;;;;5073995;28;20110;-76
2022/10/26 00:17:42;;;;;;;;;;;11.60;99.90;;;;;;5075314;28;19920;-71
2022/10/26 00:20:08;;;;;;;;;;;11.60;99.90;;;;;;5073770;28;19920;-71
2022/10/26 00:22:33;;;;;;;;;;;11.60;99.90;;;;;;5074443;28;20011;-71
2022/10/26 00:24:59;;;;;;;;;;;11.50;99.90;;;;;;5073776;28;19931;-71
2022/10/26 00:27:24;;;;;;;;;;;11.50;99.90;;;;;;5074477;28;20019;-71
2022/10/26 00:29:50;;;;;;;;;;;11.50;99.90;;;;;;5107428;28;20371;-70
2022/10/26 00:32:15;;;;;;;;;;;11.50;99.90;;;;;;5073847;28;20325;-70
2022/10/26 00:34:41;;;;;;;;;;;11.40;99.90;;;;;;5074234;28;19921;-71
2022/10/26 00:37:07;;;;;;;;;;;11.50;99.90;;;;;;5074265;28;19966;-71
2022/10/26 00:39:32;;;;;;;;;;;11.50;99.90;;;;;;5107241;28;19974;-71
2022/10/26 00:41:58;;;;;;;;;;;11.50;99.90;;;;;;5073241;28;20281;-71
2022/10/26 00:44:42;;;;;;;;;;;11.40;99.90;;;;;;5074093;28;20008;-71
2022/10/26 00:47:08;;;;;;;;;;;11.40;99.90;;;;;;5072907;28;19929;-71
2022/10/26 00:49:34;;;;;;;;;;;11.40;99.90;;;;;;5073845;28;19928;-71
2022/10/26 00:52:00;;;;;;;;;;;11.40;99.90;;;;;;5106749;28;19921;-71
2022/10/26 00:54:25;;;;;;;;;;;11.30;99.90;;;;;;5106743;28;19927;-71
2022/10/26 00:56:53;;;;;;;;;;;11.30;99.90;;;;;;5074229;28;20027;-71
2022/10/26 00:59:19;;;;;;;;;;;11.30;99.90;;;;;;5074085;28;19928;-71
2022/10/26 01:01:46;;;;;;;;;;;11.30;99.90;;;;;;5089589;28;20022;-70
2022/10/26 01:04:13;;;;;;;;;;;11.20;99.90;;;;;;5073266;28;20324;-71
2022/10/26 01:06:39;;;;;;;;;;;11.20;99.90;;;;;;5106629;28;19920;-70
2022/10/26 01:09:04;;;;;;;;;;;11.10;99.90;;;;;;5073006;28;20497;-70
2022/10/26 01:11:30;;;;;;;;;;;11.20;99.90;;;;;;5089641;28;20026;-71
2022/10/26 01:13:57;;;;;;;;;;;11.10;99.90;;;;;;5072917;28;20283;-71
2022/10/26 01:16:28;;;;;;;;;;;11.10;99.90;;;;;;5072860;28;19971;-72
2022/10/26 01:18:54;;;;;;;;;;;11.10;99.90;;;;;;5072809;28;20244;-71
2022/10/26 01:21:19;;;;;;;;;;;11.10;99.90;;;;;;5106633;28;19920;-72
2022/10/26 01:24:04;;;;;;;;;;;11.10;99.90;;;;;;5073366;28;20081;-71
2022/10/26 01:26:44;;;;;;;;;;;11.10;99.90;;;;;;5073560;28;19927;-71
2022/10/26 01:29:10;;;;;;;;;;;11.00;99.90;;;;;;5072719;28;20039;-71
2022/10/26 01:31:43;;;;;;;;;;;11.00;99.90;;;;;;5073191;28;19999;-71
2022/10/26 01:34:15;;;;;;;;;;;11.00;99.90;;;;;;5073273;28;20438;-71
2022/10/26 01:36:43;;;;;;;;;;;11.00;99.90;;;;;;5071770;28;20363;-71
2022/10/26 01:39:13;;;;;;;;;;;10.90;99.90;;;;;;5089244;28;19928;-71
2022/10/26 01:41:45;;;;;;;;;;;10.90;99.90;;;;;;5088692;28;19971;-71
2022/10/26 01:44:17;;;;;;;;;;;10.90;99.90;;;;;;5073112;28;19982;-71
2022/10/26 01:46:44;;;;;;;;;;;10.90;99.90;;;;;;5105316;28;19920;-71
2022/10/26 01:49:10;;;;;;;;;;;10.80;99.90;;;;;;5106073;28;19950;-71
2022/10/26 01:51:37;;;;;;;;;;;10.80;99.90;;;;;;5071548;28;19920;-72
2022/10/26 01:54:03;;;;;;;;;;;10.70;99.90;;;;;;5071088;28;19920;-73
2022/10/26 01:56:30;;;;;;;;;;;10.60;99.90;;;;;;5071987;28;19928;-74
2022/10/26 01:59:05;;;;;;;;;;;10.60;99.90;;;;;;5072047;28;19921;-72
2022/10/26 02:01:33;;;;;;;;;;;10.60;99.90;;;;;;5072634;28;19928;-75
2022/10/26 02:04:14;;;;;;;;;;;10.60;99.90;;;;;;5071871;28;20319;-71
2022/10/26 02:06:45;;;;;;;;;;;10.60;99.90;;;;;;5071492;28;19920;-71
2022/10/26 02:09:27;;;;;;;;;;;10.50;99.90;;;;;;5071982;28;19927;-71
2022/10/26 02:11:53;;;;;;;;;;;10.50;99.90;;;;;;5071617;28;19927;-72
2022/10/26 02:14:18;;;;;;;;;;;10.40;99.90;;;;;;5088489;28;19920;-71
2022/10/26 02:16:50;;;;;;;;;;;10.40;99.90;;;;;;5104998;28;20142;-71
2022/10/26 02:19:22;;;;;;;;;;;10.30;99.90;;;;;;5105688;28;20011;-71
2022/10/26 02:21:48;;;;;;;;;;;10.30;99.90;;;;;;5071372;28;20007;-71
2022/10/26 02:24:15;;;;;;;;;;;10.30;99.90;;;;;;5072455;28;20325;-71
2022/10/26 02:26:42;;;;;;;;;;;10.20;99.90;;;;;;5071385;28;20384;-72
2022/10/26 02:29:10;;;;;;;;;;;10.20;99.90;;;;;;5072575;28;19920;-71
2022/10/26 02:31:36;;;;;;;;;;;10.10;99.90;;;;;;5072277;28;19927;-73
2022/10/26 02:34:04;;;;;;;;;;;10.10;99.90;;;;;;5071194;28;19986;-71
2022/10/26 02:36:31;;;;;;;;;;;10.10;99.90;;;;;;5071338;28;19979;-71
2022/10/26 02:38:57;;;;;;;;;;;10.20;99.90;;;;;;5071148;28;19921;-71
2022/10/26 02:41:24;;;;;;;;;;;10.10;99.90;;;;;;5071433;28;19962;-71
2022/10/26 02:43:55;;;;;;;;;;;10.00;99.90;;;;;;5070909;28;20003;-71
2022/10/26 02:46:22;;;;;;;;;;;10.00;99.90;;;;;;5072134;28;19932;-71
2022/10/26 02:48:47;;;;;;;;;;;10.00;99.90;;;;;;5071928;28;19924;-71
2022/10/26 02:51:17;;;;;;;;;;;10.00;99.90;;;;;;5072225;28;20264;-71
2022/10/26 02:53:52;;;;;;;;;;;10.00;99.90;;;;;;5071820;28;20019;-71
2022/10/26 02:56:20;;;;;;;;;;;10.00;99.90;;;;;;5072004;28;19920;-71
2022/10/26 02:58:50;;;;;;;;;;;9.90;99.90;;;;;;5071903;28;19974;-71
2022/10/26 03:01:16;;;;;;;;;;;9.80;99.90;;;;;;5104795;28;19921;-71
2022/10/26 03:03:41;;;;;;;;;;;9.90;99.90;;;;;;5070571;28;20061;-71
2022/10/26 03:06:07;;;;;;;;;;;9.90;99.90;;;;;;5071898;28;19921;-70
2022/10/26 03:08:32;;;;;;;;;;;9.90;99.90;;;;;;5104853;28;20419;-71
2022/10/26 03:10:58;;;;;;;;;;;9.80;99.90;;;;;;5071985;28;20212;-71
2022/10/26 03:13:24;;;;;;;;;;;9.80;99.90;;;;;;5070996;28;19924;-70
2022/10/26 03:15:49;;;;;;;;;;;9.80;99.90;;;;;;5070579;28;20061;-72
2022/10/26 03:18:15;;;;;;;;;;;9.80;99.90;;;;;;5104601;28;19931;-71
2022/10/26 03:20:42;;;;;;;;;;;9.80;99.90;;;;;;5070777;28;19920;-74
2022/10/26 03:23:08;;;;;;;;;;;9.80;99.90;;;;;;5103760;28;20274;-71
2022/10/26 03:25:33;;;;;;;;;;;9.70;99.90;;;;;;5087927;28;19920;-71
2022/10/26 03:28:00;;;;;;;;;;;9.70;99.90;;;;;;5070678;28;20173;-71
2022/10/26 03:30:26;;;;;;;;;;;9.70;99.90;;;;;;5088082;28;19920;-70
2022/10/26 03:32:52;;;;;;;;;;;9.70;99.90;;;;;;5104579;28;19920;-71
2022/10/26 03:35:17;;;;;;;;;;;9.70;99.90;;;;;;5104755;28;19924;-71
2022/10/26 03:37:43;;;;;;;;;;;9.70;99.90;;;;;;5070242;28;19920;-70
2022/10/26 03:40:09;;;;;;;;;;;9.70;99.90;;;;;;5087554;28;19927;-70
2022/10/26 03:42:35;;;;;;;;;;;9.60;99.90;;;;;;5070659;28;19977;-71
2022/10/26 03:45:00;;;;;;;;;;;9.60;99.90;;;;;;5071617;28;19920;-70
2022/10/26 03:47:26;;;;;;;;;;;9.60;99.90;;;;;;5071429;28;19973;-71
2022/10/26 03:49:51;;;;;;;;;;;9.60;99.90;;;;;;5087070;28;20045;-71
2022/10/26 03:52:17;;;;;;;;;;;9.60;99.90;;;;;;5072127;28;19921;-71
2022/10/26 03:54:43;;;;;;;;;;;9.60;99.90;;;;;;5087263;28;19920;-75
2022/10/26 03:57:08;;;;;;;;;;;9.70;99.90;;;;;;5104048;28;19920;-70
2022/10/26 03:59:34;;;;;;;;;;;9.60;99.90;;;;;;5104061;28;19931;-70
2022/10/26 04:01:59;;;;;;;;;;;9.60;99.90;;;;;;5104177;28;19921;-72
2022/10/26 04:04:25;;;;;;;;;;;9.60;99.90;;;;;;5071684;28;19928;-71
2022/10/26 04:06:50;;;;;;;;;;;9.50;99.90;;;;;;5071401;28;19927;-71
2022/10/26 04:09:16;;;;;;;;;;;9.60;99.90;;;;;;5071534;28;20260;-71
2022/10/26 04:11:41;;;;;;;;;;;9.60;99.90;;;;;;5104145;28;19966;-70
2022/10/26 04:14:07;;;;;;;;;;;9.70;99.90;;;;;;5070303;28;19975;-71
2022/10/26 04:16:32;;;;;;;;;;;9.60;99.90;;;;;;5072238;28;19920;-71
2022/10/26 04:18:58;;;;;;;;;;;9.60;99.90;;;;;;5107681;28;19927;-71
2022/10/26 04:21:24;;;;;;;;;;;9.60;99.90;;;;;;5073975;28;19928;-71
2022/10/26 04:23:49;;;;;;;;;;;9.70;99.90;;;;;;5107476;28;19943;-70
2022/10/26 04:26:15;;;;;;;;;;;9.60;99.90;;;;;;5073657;28;20523;-70
2022/10/26 04:28:40;;;;;;;;;;;9.60;99.90;;;;;;5074857;28;19920;-70
2022/10/26 04:31:06;;;;;;;;;;;9.60;99.90;;;;;;5074744;28;19923;-70
2022/10/26 04:33:31;;;;;;;;;;;9.60;99.90;;;;;;5090718;28;19920;-72
2022/10/26 04:36:00;;;;;;;;;;;9.60;99.90;;;;;;5090243;28;20329;-72
2022/10/26 04:38:26;;;;;;;;;;;9.60;99.90;;;;;;5074801;28;19920;-72
2022/10/26 04:40:51;;;;;;;;;;;9.60;99.90;;;;;;5089919;28;19920;-70
2022/10/26 04:43:17;;;;;;;;;;;9.60;99.90;;;;;;5074750;28;19973;-70
2022/10/26 04:45:42;;;;;;;;;;;9.50;99.90;;;;;;5073579;28;19921;-70
2022/10/26 04:48:11;;;;;;;;;;;9.60;99.90;;;;;;5073767;28;20204;-71
2022/10/26 04:50:37;;;;;;;;;;;9.60;99.90;;;;;;5074455;28;19924;-71
2022/10/26 04:53:03;;;;;;;;;;;9.60;99.90;;;;;;5072877;28;19924;-71
2022/10/26 04:55:29;;;;;;;;;;;9.60;99.90;;;;;;5090429;28;19978;-71
2022/10/26 04:57:54;;;;;;;;;;;9.60;99.90;;;;;;5074011;28;20286;-70
2022/10/26 05:00:20;;;;;;;;;;;9.60;99.90;;;;;;5074385;28;19924;-71
2022/10/26 05:02:45;;;;;;;;;;;9.70;99.90;;;;;;5072901;28;20447;-71
2022/10/26 05:05:11;;;;;;;;;;;9.70;99.90;;;;;;5072863;28;19924;-70
2022/10/26 05:07:37;;;;;;;;;;;9.70;99.90;;;;;;5107145;28;19924;-71
2022/10/26 05:10:02;;;;;;;;;;;9.80;99.90;;;;;;5072683;28;20019;-71
2022/10/26 05:12:28;;;;;;;;;;;9.80;99.90;;;;;;5072827;28;19931;-71
2022/10/26 05:14:57;;;;;;;;;;;9.80;99.90;;;;;;5073985;28;19925;-72
2022/10/26 05:17:26;;;;;;;;;;;9.80;99.90;;;;;;5074829;28;19931;-71
2022/10/26 05:19:54;;;;;;;;;;;9.80;99.90;;;;;;5072821;28;20295;-71
2022/10/26 05:22:20;;;;;;;;;;;9.90;99.90;;;;;;5106315;28;20313;-72
2022/10/26 05:24:46;;;;;;;;;;;9.90;99.90;;;;;;5106600;28;19925;-71
2022/10/26 05:27:11;;;;;;;;;;;9.90;99.90;;;;;;5072194;28;19932;-71
2022/10/26 05:29:37;;;;;;;;;;;9.90;99.90;;;;;;5088582;28;19950;-72
2022/10/26 05:32:03;;;;;;;;;;;9.90;99.90;;;;;;5071660;28;19930;-71
2022/10/26 05:34:28;;;;;;;;;;;9.90;99.90;;;;;;5089073;28;20229;-71
2022/10/26 05:36:54;;;;;;;;;;;10.00;99.90;;;;;;5105764;28;20376;-71
2022/10/26 05:39:20;;;;;;;;;;;9.90;99.90;;;;;;5072112;28;19925;-72
2022/10/26 05:41:45;;;;;;;;;;;10.00;99.90;;;;;;5073507;28;19932;-71
2022/10/26 05:44:11;;;;;;;;;;;9.90;99.90;;;;;;5072903;28;20248;-71
2022/10/26 05:46:36;;;;;;;;;;;9.90;99.90;;;;;;5071951;28;19930;-71
2022/10/26 05:49:02;;;;;;;;;;;9.90;99.90;;;;;;5072030;28;19924;-71
2022/10/26 05:51:27;;;;;;;;;;;9.90;99.90;;;;;;5072200;28;19960;-71
2022/10/26 05:53:53;;;;;;;;;;;9.90;99.90;;;;;;5073547;28;20364;-72
2022/10/26 05:56:23;;;;;;;;;;;10.00;99.90;;;;;;5105358;28;19998;-71
2022/10/26 05:58:49;;;;;;;;;;;10.00;99.90;;;;;;5073192;28;19925;-71
2022/10/26 06:01:30;;;;;;;;;;;9.90;99.90;;;;;;5072425;28;20050;-71
2022/10/26 06:04:01;;;;;;;;;;;9.90;99.90;;;;;;5071784;28;19920;-71
2022/10/26 06:06:28;;;;;;;;;;;10.00;99.90;;;;;;5072965;28;20263;-71
2022/10/26 06:08:54;;;;;;;;;;;10.00;99.90;;;;;;5072915;28;20029;-72
2022/10/26 06:11:19;;;;;;;;;;;10.00;99.90;;;;;;5071820;28;20383;-71
2022/10/26 06:13:45;;;;;;;;;;;10.00;99.90;;;;;;5105897;28;19931;-71
2022/10/26 06:16:11;;;;;;;;;;;10.00;99.90;;;;;;5072416;28;19937;-71
2022/10/26 06:18:48;;;;;;;;;;;10.00;99.90;;;;;;5072015;28;19971;-70
2022/10/26 06:21:32;;;;;;;;;;;10.00;99.90;;;;;;5071600;28;19924;-71
2022/10/26 06:24:03;;;;;;;;;;;10.00;99.90;;;;;;5105334;28;19932;-71
2022/10/26 06:26:32;;;;;;;;;;;10.00;99.90;;;;;;5071387;28;19974;-71
2022/10/26 06:29:10;;;;;;;;;;;10.10;99.90;;;;;;5104965;28;19963;-71
2022/10/26 06:31:35;;;;;;;;;;;10.10;99.90;;;;;;5071286;28;19978;-71
2022/10/26 06:34:01;;;;;;;;;;;10.10;99.90;;;;;;5104473;28;20013;-73
2022/10/26 06:36:27;;;;;;;;;;;10.10;99.90;;;;;;5072050;28;20388;-72
2022/10/26 06:38:54;;;;;;;;;;;10.10;99.90;;;;;;5070768;28;19925;-70
2022/10/26 06:41:21;;;;;;;;;;;10.20;99.90;;;;;;5070901;28;20377;-70
2022/10/26 06:43:47;;;;;;;;;;;10.20;99.90;;;;;;5104738;28;19925;-71
2022/10/26 06:46:15;;;;;;;;;;;10.20;99.90;;;;;;5103995;28;20031;-71
2022/10/26 06:48:48;;;;;;;;;;;10.30;99.90;;;;;;5104860;28;19971;-72
2022/10/26 06:51:15;;;;;;;;;;;10.30;99.90;;;;;;5087364;28;20015;-72
2022/10/26 06:53:55;;;;;;;;;;;10.30;99.90;;;;;;5070739;28;20409;-72
2022/10/26 06:56:23;;;;;;;;;;;10.30;99.90;;;;;;5103890;28;19947;-72
2022/10/26 06:58:49;;;;;;;;;;;10.40;99.90;;;;;;5070791;28;19929;-71
2022/10/26 07:01:15;;;;;;;;;;;10.40;99.90;;;;;;5103964;28;19935;-70
2022/10/26 07:03:41;;;;;;;;;;;10.40;99.90;;;;;;5087389;28;19943;-71
2022/10/26 07:06:07;;;;;;;;;;;10.50;99.90;;;;;;5070242;28;19924;-73
2022/10/26 07:08:33;;;;;;;;;;;10.50;99.90;;;;;;5087299;28;20123;-78
2022/10/26 07:10:59;;;;;;;;;;;10.50;99.90;;;;;;5087472;28;19967;-77
2022/10/26 07:13:24;;;;;;;;;;;10.50;99.90;;;;;;5087053;28;19928;-76
2022/10/26 07:15:50;;;;;;;;;;;10.60;99.90;;;;;;5104755;28;19932;-76
2022/10/26 07:18:15;;;;;;;;;;;10.50;99.90;;;;;;5105147;28;19924;-77
2022/10/26 07:20:41;;;;;;;;;;;10.60;99.90;;;;;;5071686;28;20279;-76
2022/10/26 07:23:10;;;;;;;;;;;10.60;99.90;;;;;;5072512;28;20425;-76
2022/10/26 07:25:38;;;;;;;;;;;10.70;99.90;;;;;;5087705;28;19925;-76
2022/10/26 07:28:09;;;;;;;;;;;10.70;99.90;;;;;;5104360;28;20284;-76
2022/10/26 07:30:34;;;;;;;;;;;10.70;99.90;;;;;;5070058;28;19994;-76
2022/10/26 07:33:10;;;;;;;;;;;10.80;99.90;;;;;;5070577;28;20375;-77
2022/10/26 07:35:36;;;;;;;;;;;10.80;99.90;;;;;;5086419;28;19925;-77
2022/10/26 07:38:03;;;;;;;;;;;10.80;99.90;;;;;;5087168;28;19939;-77
2022/10/26 07:40:29;;;;;;;;;;;10.90;99.90;;;;;;5069664;28;20368;-77
2022/10/26 07:42:58;;;;;;;;;;;11.00;99.90;;;;;;5086693;28;20121;-77
2022/10/26 07:45:25;;;;;;;;;;;11.00;99.90;;;;;;5086387;28;19924;-76
2022/10/26 07:47:50;;;;;;;;;;;11.00;99.90;;;;;;5070084;28;20279;-76
2022/10/26 07:50:16;;;;;;;;;;;11.00;99.90;;;;;;5069783;28;19925;-77
2022/10/26 07:52:41;;;;;;;;;;;11.00;99.90;;;;;;5106579;28;19925;-77
2022/10/26 07:55:08;;;;;;;;;;;11.10;99.90;;;;;;5073894;28;19925;-77
2022/10/26 07:57:34;;;;;;;;;;;11.10;99.90;;;;;;5090158;28;19920;-77
2022/10/26 07:59:59;;;;;;;;;;;11.20;99.90;;;;;;5073722;28;20334;-77
2022/10/26 08:02:25;;;;;;;;;;;11.20;99.90;;;;;;5107316;28;19931;-77
2022/10/26 08:04:51;;;;;;;;;;;11.30;99.90;;;;;;5073910;28;19990;-77
2022/10/26 08:07:16;;;;;;;;;;;11.40;99.90;;;;;;5107397;28;19930;-78
2022/10/26 08:09:42;;;;;;;;;;;11.40;99.90;;;;;;5090661;28;19924;-78
2022/10/26 08:12:07;;;;;;;;;;;11.50;99.90;;;;;;5107306;28;20342;-75
2022/10/26 08:14:33;;;;;;;;;;;11.60;99.90;;;;;;5089930;28;19924;-76
2022/10/26 08:16:58;;;;;;;;;;;11.60;99.90;;;;;;5090043;28;19931;-73
2022/10/26 08:19:24;;;;;;;;;;;12.00;99.90;;;;;;5073158;28;19928;-73
2022/10/26 08:21:49;;;;;;;;;;;11.80;99.90;;;;;;5073204;28;19986;-73
2022/10/26 08:24:15;;;;;;;;;;;11.90;99.90;;;;;;5073549;28;19925;-71
2022/10/26 08:26:41;;;;;;;;;;;11.90;99.90;;;;;;5073056;28;20019;-74
2022/10/26 08:29:06;;;;;;;;;;;12.00;99.90;;;;;;5073355;28;19930;-73
2022/10/26 08:31:32;;;;;;;;;;;12.00;99.90;;;;;;5072889;28;20085;-73
2022/10/26 08:33:58;;;;;;;;;;;12.10;99.90;;;;;;5089914;28;20020;-73
2022/10/26 08:36:25;;;;;;;;;;;12.20;99.90;;;;;;5106764;28;19924;-73
2022/10/26 08:38:51;;;;;;;;;;;12.30;99.90;;;;;;5089961;28;19929;-73
2022/10/26 08:41:18;;;;;;;;;;;12.40;99.90;;;;;;5103632;28;19927;-80
2022/10/26 08:43:52;;;;;;;;;;;12.50;99.90;;;;;;5103310;28;20497;-75
2022/10/26 08:46:24;;;;;;;;;;;12.70;99.90;;;;;;5072286;28;19958;-79
2022/10/26 08:48:54;;;;;;;;;;;12.80;99.90;;;;;;5106877;28;19925;-80
2022/10/26 08:51:29;;;;;;;;;;;13.00;99.90;;;;;;5089516;28;20018;-75
2022/10/26 08:53:54;;;;;;;;;;;13.10;99.90;;;;;;5055120;28;20023;-75
2022/10/26 08:56:25;;;;;;;;;;;13.20;99.90;;;;;;5073111;28;19983;-77
2022/10/26 08:58:53;;;;;;;;;;;13.20;99.90;;;;;;5087348;28;20023;-76
2022/10/26 09:01:19;;;;;;;;;;;13.30;99.90;;;;;;5072164;28;19978;-73
2022/10/26 09:03:44;;;;;;;;;;;13.40;99.90;;;;;;5070595;28;19975;-75
2022/10/26 09:06:10;;;;;;;;;;;13.50;99.90;;;;;;5105522;28;19924;-74
2022/10/26 09:08:44;;;;;;;;;;;13.50;99.90;;;;;;5071663;28;19971;-73
2022/10/26 09:11:13;;;;;;;;;;;13.70;99.90;;;;;;5071989;28;19983;-75
2022/10/26 09:13:47;;;;;;;;;;;13.70;99.90;;;;;;5104999;28;19968;-73
2022/10/26 09:16:19;;;;;;;;;;;13.80;99.90;;;;;;5089218;28;19973;-74
2022/10/26 09:18:55;;;;;;;;;;;13.90;99.90;;;;;;5105526;28;19924;-71
2022/10/26 09:21:32;;;;;;;;;;;13.90;99.90;;;;;;5072358;28;20322;-74
2022/10/26 09:24:05;;;;;;;;;;;14.00;99.90;;;;;;5106106;28;19931;-73
2022/10/26 09:26:32;;;;;;;;;;;14.00;99.90;;;;;;5071837;28;19924;-76
2022/10/26 09:29:02;;;;;;;;;;;14.10;99.90;;;;;;5088559;28;20371;-83
2022/10/26 09:31:37;;;;;;;;;;;14.10;99.90;;;;;;5071321;28;19928;-77
2022/10/26 09:34:04;;;;;;;;;;;14.20;99.90;;;;;;5071998;28;19925;-77
2022/10/26 09:36:30;;;;;;;;;;;14.40;99.90;;;;;;5071816;28;19925;-77
2022/10/26 09:39:00;;;;;;;;;;;14.60;99.90;;;;;;5088673;28;19925;-75
2022/10/26 09:41:28;;;;;;;;;;;14.70;99.90;;;;;;5088545;28;19924;-74
2022/10/26 09:44:12;;;;;;;;;;;14.80;99.90;;;;;;5105110;28;20031;-72
2022/10/26 09:47:03;;;;;;;;;;;14.90;99.90;;;;;;5070871;28;19978;-74
2022/10/26 09:49:36;;;;;;;;;;;15.00;99.90;;;;;;5070379;28;20397;-73
2022/10/26 09:52:02;;;;;;;;;;;15.10;99.90;;;;;;5071849;28;19925;-77
2022/10/26 09:54:28;;;;;;;;;;;15.20;99.90;;;;;;5070463;28;19932;-73
2022/10/26 09:56:57;;;;;;;;;;;15.20;99.90;;;;;;5105226;28;20011;-73
2022/10/26 09:59:24;;;;;;;;;;;15.30;99.90;;;;;;5104092;28;19964;-75
2022/10/26 10:01:49;;;;;;;;;;;15.40;99.90;;;;;;5088072;28;20005;-72
2022/10/26 10:04:19;;;;;;;;;;;15.50;99.90;;;;;;5102588;28;19936;-70
2022/10/26 10:07:05;;;;;;;;;;;15.60;99.90;;;;;;5070545;28;20015;-75
2022/10/26 10:09:31;;;;;;;;;;;15.70;99.90;;;;;;5070308;28;19932;-77
2022/10/26 10:11:58;;;;;;;;;;;15.70;99.90;;;;;;5088039;28;19925;-74
2022/10/26 10:14:23;;;;;;;;;;;15.80;99.90;;;;;;5070252;28;19925;-72
2022/10/26 10:16:52;;;;;;;;;;;15.80;99.90;;;;;;5070735;28;20371;-76
2022/10/26 10:19:22;;;;;;;;;;;15.90;99.90;;;;;;5071063;28;19932;-78
2022/10/26 10:21:48;;;;;;;;;;;16.00;99.90;;;;;;5104782;28;19928;-75
2022/10/26 10:24:20;;;;;;;;;;;16.00;99.90;;;;;;5087676;28;20286;-75
2022/10/26 10:27:22;;;;;;;;;;;16.10;99.90;;;;;;5104580;28;20383;-75
2022/10/26 10:29:54;;;;;;;;;;;16.10;99.90;;;;;;5069103;28;19931;-69
2022/10/26 10:32:21;;;;;;;;;;;16.20;99.90;;;;;;5070652;28;19925;-74
2022/10/26 10:34:50;;;;;;;;;;;16.30;99.90;;;;;;5071115;28;20408;-66
2022/10/26 10:37:37;;;;;;;;;;;16.30;99.90;;;;;;5103412;28;20263;-66
2022/10/26 10:40:05;;;;;;;;;;;16.30;99.90;;;;;;5070721;28;19932;-66
2022/10/26 10:42:32;;;;;;;;;;;16.30;99.90;;;;;;5071693;28;19931;-77
2022/10/26 10:44:59;;;;;;;;;;;16.30;99.90;;;;;;5071873;28;19925;-68
2022/10/26 10:47:26;;;;;;;;;;;16.30;99.90;;;;;;5071815;28;19935;-66
2022/10/26 10:50:06;;;;;;;;;;;16.30;99.90;;;;;;5070262;28;19986;-72
2022/10/26 10:52:33;;;;;;;;;;;16.30;99.90;;;;;;5071932;28;19955;-68
2022/10/26 10:55:14;;;;;;;;;;;16.30;99.90;;;;;;5070419;28;19928;-68
2022/10/26 10:57:52;;;;;;;;;;;16.40;99.90;;;;;;5069983;28;20294;-68
2022/10/26 11:00:18;;;;;;;;;;;16.40;99.90;;;;;;5104212;28;20386;-75
2022/10/26 11:03:03;;;;;;;;;;;16.40;99.90;;;;;;5071126;28;19925;-69
2022/10/26 11:05:37;;;;;;;;;;;16.40;99.90;;;;;;5071883;28;19955;-69
2022/10/26 11:08:03;;;;;;;;;;;16.50;99.90;;;;;;5087231;28;19950;-69
2022/10/26 11:10:32;;;;;;;;;;;16.50;99.90;;;;;;5087029;28;20342;-69
2022/10/26 11:13:00;;;;;;;;;;;16.50;99.90;;;;;;5070301;28;19924;-70
2022/10/26 11:15:28;;;;;;;;;;;16.60;99.90;;;;;;5104304;28;20314;-74
2022/10/26 11:17:59;;;;;;;;;;;16.70;99.90;;;;;;5103719;28;19924;-71
2022/10/26 11:20:27;;;;;;;;;;;16.70;99.90;;;;;;5070657;28;19981;-73
2022/10/26 11:22:57;;;;;;;;;;;16.80;99.90;;;;;;5070330;28;20378;-73
2022/10/26 11:25:33;;;;;;;;;;;16.90;99.90;;;;;;5105235;28;20247;-75
2022/10/26 11:28:01;;;;;;;;;;;17.00;99.90;;;;;;5108135;28;19932;-74
2022/10/26 11:30:28;;;;;;;;;;;17.10;99.90;;;;;;5074706;28;20023;-74
2022/10/26 11:32:54;;;;;;;;;;;17.20;99.90;;;;;;5107979;28;19924;-73
2022/10/26 11:35:31;;;;;;;;;;;17.20;99.90;;;;;;5108512;28;20374;-74
2022/10/26 11:38:08;;;;;;;;;;;17.10;99.90;;;;;;5073374;28;20158;-72
2022/10/26 11:40:43;;;;;;;;;;;17.20;99.90;;;;;;5074561;28;19925;-72
2022/10/26 11:43:12;;;;;;;;;;;17.20;99.90;;;;;;5108213;28;20002;-72
2022/10/26 11:45:40;;;;;;;;;;;17.20;99.90;;;;;;5074014;28;19931;-73
2022/10/26 11:48:12;;;;;;;;;;;17.30;99.90;;;;;;5107807;28;19947;-72
2022/10/26 11:50:40;;;;;;;;;;;17.40;99.90;;;;;;5075066;28;19924;-68
2022/10/26 11:53:09;;;;;;;;;;;17.40;99.90;;;;;;5073277;28;19969;-69
2022/10/26 11:55:34;;;;;;;;;;;17.60;99.90;;;;;;5073563;28;19983;-69
2022/10/26 11:58:01;;;;;;;;;;;17.60;99.90;;;;;;5074717;28;19971;-70
2022/10/26 12:00:28;;;;;;;;;;;17.70;99.90;;;;;;5074951;28;19924;-70
2022/10/26 12:03:01;;;;;;;;;;;17.70;99.90;;;;;;5090539;28;19931;-69
2022/10/26 12:05:40;;;;;;;;;;;17.70;99.90;;;;;;5074051;28;20015;-69
2022/10/26 12:08:12;;;;;;;;;;;17.70;99.90;;;;;;5073614;28;19925;-69
2022/10/26 12:10:40;;;;;;;;;;;17.80;99.90;;;;;;5074707;28;19924;-70
2022/10/26 12:13:06;;;;;;;;;;;17.90;99.90;;;;;;5073255;28;19947;-70
2022/10/26 12:15:34;;;;;;;;;;;17.90;99.90;;;;;;5073812;28;19928;-71
2022/10/26 12:18:18;;;;;;;;;;;18.00;99.90;;;;;;5107104;28;20390;-70
2022/10/26 12:21:03;;;;;;;;;;;18.00;99.90;;;;;;5073452;28;20019;-78
2022/10/26 12:23:31;;;;;;;;;;;18.00;99.90;;;;;;5074703;28;19935;-71
2022/10/26 12:26:15;;;;;;;;;;;18.00;99.90;;;;;;5090108;28;19924;-70
2022/10/26 12:28:41;;;;;;;;;;;18.00;99.90;;;;;;5073487;28;20268;-70
2022/10/26 12:31:32;;;;;;;;;;;18.00;99.90;;;;;;5107005;28;19951;-70
2022/10/26 12:33:58;;;;;;;;;;;18.00;99.90;;;;;;5072722;28;19931;-70
2022/10/26 12:36:43;;;;;;;;;;;18.00;99.90;;;;;;5072841;28;20398;-70
2022/10/26 12:39:25;;;;;;;;;;;18.10;99.90;;;;;;5072496;28;19971;-70
2022/10/26 12:41:56;;;;;;;;;;;18.10;99.90;;;;;;5055758;28;19932;-70
2022/10/26 12:44:32;;;;;;;;;;;18.10;99.90;;;;;;5073095;28;20294;-70
2022/10/26 12:46:58;;;;;;;;;;;18.10;99.90;;;;;;5105905;28;19924;-71
2022/10/26 12:49:42;;;;;;;;;;;18.10;99.90;;;;;;5106735;28;19924;-70
2022/10/26 12:52:19;;;;;;;;;;;18.10;99.90;;;;;;5072725;28;19921;-73
2022/10/26 12:54:53;;;;;;;;;;;18.10;99.90;;;;;;5074085;28;19928;-70
2022/10/26 12:57:37;;;;;;;;;;;18.10;99.90;;;;;;5073864;28;19989;-70
2022/10/26 13:00:04;;;;;;;;;;;18.00;99.90;;;;;;5072305;28;19931;-70
2022/10/26 13:02:33;;;;;;;;;;;18.00;99.90;;;;;;5073849;28;20283;-70
2022/10/26 13:04:58;;;;;;;;;;;18.00;99.90;;;;;;5106266;28;20295;-70
2022/10/26 13:07:25;;;;;;;;;;;18.00;99.90;;;;;;5072825;28;19928;-70
2022/10/26 13:10:02;;;;;;;;;;;18.00;99.90;;;;;;5072081;28;20452;-71
2022/10/26 13:12:34;;;;;;;;;;;18.00;99.90;;;;;;5073477;28;20378;-71
2022/10/26 13:15:01;;;;;;;;;;;18.00;99.90;;;;;;5073202;28;20276;-71
2022/10/26 13:17:28;;;;;;;;;;;18.00;99.90;;;;;;5072088;28;19951;-70
2022/10/26 13:19:55;;;;;;;;;;;17.90;99.90;;;;;;5073274;28;19928;-70
2022/10/26 13:22:21;;;;;;;;;;;17.90;99.90;;;;;;5106149;28;20020;-70
2022/10/26 13:24:50;;;;;;;;;;;18.00;99.90;;;;;;5073357;28;19972;-73
2022/10/26 13:27:15;;;;;;;;;;;18.00;99.90;;;;;;5073057;28;19959;-71
2022/10/26 13:30:00;;;;;;;;;;;18.00;99.90;;;;;;5106262;28;19924;-70
2022/10/26 13:32:25;;;;;;;;;;;18.00;99.90;;;;;;5088898;28;19925;-73
2022/10/26 13:34:51;;;;;;;;;;;18.00;99.90;;;;;;5088896;28;20283;-77
2022/10/26 13:37:22;;;;;;;;;;;18.00;99.90;;;;;;5105398;28;19970;-71
2022/10/26 13:39:49;;;;;;;;;;;17.90;99.90;;;;;;5072207;28;19924;-71
2022/10/26 13:42:15;;;;;;;;;;;17.90;99.90;;;;;;5071733;28;19932;-70
2022/10/26 13:44:44;;;;;;;;;;;18.00;99.90;;;;;;5071935;28;19924;-70
2022/10/26 13:47:14;;;;;;;;;;;18.00;99.90;;;;;;5071142;28;19924;-71
2022/10/26 13:49:41;;;;;;;;;;;18.00;99.90;;;;;;5070487;28;20419;-70
2022/10/26 13:52:30;;;;;;;;;;;17.90;99.90;;;;;;5072422;28;19924;-70
2022/10/26 13:55:02;;;;;;;;;;;17.90;99.90;;;;;;5051530;28;19924;-76
2022/10/26 13:57:41;;;;;;;;;;;17.90;99.90;;;;;;5105476;28;19931;-70
2022/10/26 14:00:07;;;;;;;;;;;17.90;99.90;;;;;;5071280;28;19925;-71
2022/10/26 14:02:33;;;;;;;;;;;17.90;99.90;;;;;;5071762;28;19924;-71
2022/10/26 14:04:59;;;;;;;;;;;17.80;99.90;;;;;;5071211;28;19935;-71
2022/10/26 14:07:29;;;;;;;;;;;17.80;99.90;;;;;;5071465;28;20335;-70
2022/10/26 14:09:56;;;;;;;;;;;17.80;99.90;;;;;;5088147;28;19971;-79
2022/10/26 14:12:23;;;;;;;;;;;17.80;99.90;;;;;;5105477;28;19929;-70
2022/10/26 14:14:49;;;;;;;;;;;17.80;99.90;;;;;;5072650;28;20016;-73
2022/10/26 14:17:20;;;;;;;;;;;17.70;99.90;;;;;;5104874;28;19928;-71
2022/10/26 14:19:46;;;;;;;;;;;17.70;99.90;;;;;;5105299;28;19932;-71
2022/10/26 14:22:20;;;;;;;;;;;17.70;99.90;;;;;;5071018;28;20055;-71
2022/10/26 14:24:49;;;;;;;;;;;17.70;99.90;;;;;;5088328;28;19925;-70
2022/10/26 14:27:16;;;;;;;;;;;17.70;99.90;;;;;;5070866;28;19931;-70